sensor_id;sensor_type;location;lat;lon;timestamp;P1;durP1;ratioP1;P2;durP2;ratioP2
28547;SDS011;68292;49.600;8.746;2023-04-25T00:00:04;4.13;;;3.27;;
28547;SDS011;68292;49.600;8.746;2023-04-25T00:02:37;3.43;;;3.13;;
28547;SDS011;68292;49.600;8.746;2023-04-25T00:05:06;4.17;;;3.77;;
28547;SDS011;68292;49.600;8.746;2023-04-25T00:07:37;5.40;;;2.93;;
28547;SDS011;68292;49.600;8.746;2023-04-25T00:10:08;3.57;;;3.27;;
28547;SDS011;68292;49.600;8.746;2023-04-25T00:12:39;3.60;;;3.30;;
28547;SDS011;68292;49.600;8.746;2023-04-25T00:15:09;5.47;;;3.27;;
28547;SDS011;68292;49.600;8.746;2023-04-25T00:17:38;4.00;;;3.30;;
28547;SDS011;68292;49.600;8.746;2023-04-25T00:20:08;3.53;;;3.23;;
28547;SDS011;68292;49.600;8.746;2023-04-25T00:22:40;4.60;;;3.10;;
28547;SDS011;68292;49.600;8.746;2023-04-25T00:25:09;6.07;;;3.10;;
28547;SDS011;68292;49.600;8.746;2023-04-25T00:27:37;3.60;;;3.30;;
28547;SDS011;68292;49.600;8.746;2023-04-25T00:30:08;3.50;;;3.20;;
28547;SDS011;68292;49.600;8.746;2023-04-25T00:32:38;3.50;;;3.20;;
28547;SDS011;68292;49.600;8.746;2023-04-25T00:35:08;5.53;;;3.50;;
28547;SDS011;68292;49.600;8.746;2023-04-25T00:37:37;3.90;;;3.60;;
28547;SDS011;68292;49.600;8.746;2023-04-25T00:40:07;3.07;;;2.87;;
28547;SDS011;68292;49.600;8.746;2023-04-25T00:42:37;3.07;;;2.83;;
28547;SDS011;68292;49.600;8.746;2023-04-25T00:45:07;3.60;;;3.30;;
28547;SDS011;68292;49.600;8.746;2023-04-25T00:47:40;3.77;;;3.47;;
28547;SDS011;68292;49.600;8.746;2023-04-25T00:50:09;3.17;;;2.97;;
28547;SDS011;68292;49.600;8.746;2023-04-25T00:52:40;5.17;;;3.07;;
28547;SDS011;68292;49.600;8.746;2023-04-25T00:55:12;3.50;;;3.20;;
28547;SDS011;68292;49.600;8.746;2023-04-25T00:57:42;3.53;;;3.20;;
28547;SDS011;68292;49.600;8.746;2023-04-25T01:00:11;3.93;;;3.57;;
28547;SDS011;68292;49.600;8.746;2023-04-25T01:02:42;4.27;;;3.33;;
28547;SDS011;68292;49.600;8.746;2023-04-25T01:05:13;3.50;;;3.20;;
28547;SDS011;68292;49.600;8.746;2023-04-25T01:07:43;4.03;;;3.73;;
28547;SDS011;68292;49.600;8.746;2023-04-25T01:10:12;4.50;;;3.90;;
28547;SDS011;68292;49.600;8.746;2023-04-25T01:12:41;5.50;;;3.63;;
28547;SDS011;68292;49.600;8.746;2023-04-25T01:15:10;3.43;;;3.13;;
28547;SDS011;68292;49.600;8.746;2023-04-25T01:17:39;4.07;;;3.70;;
28547;SDS011;68292;49.600;8.746;2023-04-25T01:20:47;3.90;;;3.57;;
28547;SDS011;68292;49.600;8.746;2023-04-25T01:23:21;3.30;;;3.10;;
28547;SDS011;68292;49.600;8.746;2023-04-25T01:25:51;3.90;;;3.60;;
28547;SDS011;68292;49.600;8.746;2023-04-25T01:28:21;5.67;;;3.90;;
28547;SDS011;68292;49.600;8.746;2023-04-25T01:30:49;4.93;;;4.00;;
28547;SDS011;68292;49.600;8.746;2023-04-25T01:33:21;4.10;;;3.73;;
28547;SDS011;68292;49.600;8.746;2023-04-25T01:35:50;4.10;;;3.80;;
28547;SDS011;68292;49.600;8.746;2023-04-25T01:38:20;4.57;;;3.83;;
28547;SDS011;68292;49.600;8.746;2023-04-25T01:40:49;4.73;;;4.30;;
28547;SDS011;68292;49.600;8.746;2023-04-25T01:43:20;4.47;;;4.07;;
28547;SDS011;68292;49.600;8.746;2023-04-25T01:45:50;4.50;;;4.10;;
28547;SDS011;68292;49.600;8.746;2023-04-25T01:48:19;4.70;;;4.30;;
28547;SDS011;68292;49.600;8.746;2023-04-25T01:50:48;5.27;;;4.13;;
28547;SDS011;68292;49.600;8.746;2023-04-25T01:53:17;5.10;;;4.60;;
28547;SDS011;68292;49.600;8.746;2023-04-25T01:55:47;5.93;;;4.30;;
28547;SDS011;68292;49.600;8.746;2023-04-25T01:58:19;6.57;;;4.23;;
28547;SDS011;68292;49.600;8.746;2023-04-25T02:01:06;3.97;;;3.67;;
28547;SDS011;68292;49.600;8.746;2023-04-25T02:03:42;5.37;;;4.90;;
28547;SDS011;68292;49.600;8.746;2023-04-25T02:06:23;4.60;;;4.20;;
28547;SDS011;68292;49.600;8.746;2023-04-25T02:08:54;5.57;;;4.50;;
28547;SDS011;68292;49.600;8.746;2023-04-25T02:11:25;4.43;;;4.00;;
28547;SDS011;68292;49.600;8.746;2023-04-25T02:14:12;7.33;;;5.07;;
28547;SDS011;68292;49.600;8.746;2023-04-25T02:17:13;4.50;;;4.10;;
28547;SDS011;68292;49.600;8.746;2023-04-25T02:19:44;4.67;;;4.17;;
28547;SDS011;68292;49.600;8.746;2023-04-25T02:22:13;5.00;;;4.50;;
28547;SDS011;68292;49.600;8.746;2023-04-25T02:24:41;5.50;;;4.60;;
28547;SDS011;68292;49.600;8.746;2023-04-25T02:27:11;5.23;;;4.83;;
28547;SDS011;68292;49.600;8.746;2023-04-25T02:29:40;5.60;;;4.97;;
28547;SDS011;68292;49.600;8.746;2023-04-25T02:32:10;4.67;;;4.27;;
28547;SDS011;68292;49.600;8.746;2023-04-25T02:34:39;5.00;;;4.60;;
28547;SDS011;68292;49.600;8.746;2023-04-25T02:37:08;5.20;;;4.60;;
28547;SDS011;68292;49.600;8.746;2023-04-25T02:39:36;5.90;;;5.40;;
28547;SDS011;68292;49.600;8.746;2023-04-25T02:42:05;5.30;;;4.60;;
28547;SDS011;68292;49.600;8.746;2023-04-25T02:44:35;4.83;;;4.43;;
28547;SDS011;68292;49.600;8.746;2023-04-25T02:47:04;4.90;;;4.43;;
28547;SDS011;68292;49.600;8.746;2023-04-25T02:49:33;5.43;;;4.93;;
28547;SDS011;68292;49.600;8.746;2023-04-25T02:52:02;5.17;;;4.77;;
28547;SDS011;68292;49.600;8.746;2023-04-25T02:54:31;5.47;;;4.97;;
28547;SDS011;68292;49.600;8.746;2023-04-25T02:57:00;5.60;;;4.77;;
28547;SDS011;68292;49.600;8.746;2023-04-25T02:59:36;5.17;;;4.67;;
28547;SDS011;68292;49.600;8.746;2023-04-25T03:02:05;4.80;;;4.33;;
28547;SDS011;68292;49.600;8.746;2023-04-25T03:04:33;5.50;;;4.20;;
28547;SDS011;68292;49.600;8.746;2023-04-25T03:07:02;7.17;;;4.73;;
28547;SDS011;68292;49.600;8.746;2023-04-25T03:09:31;5.27;;;4.50;;
28547;SDS011;68292;49.600;8.746;2023-04-25T03:12:00;5.20;;;4.73;;
28547;SDS011;68292;49.600;8.746;2023-04-25T03:14:30;5.10;;;4.67;;
28547;SDS011;68292;49.600;8.746;2023-04-25T03:17:00;5.40;;;4.90;;
28547;SDS011;68292;49.600;8.746;2023-04-25T03:19:30;4.93;;;4.53;;
28547;SDS011;68292;49.600;8.746;2023-04-25T03:21:59;5.03;;;4.63;;
28547;SDS011;68292;49.600;8.746;2023-04-25T03:24:28;4.83;;;4.43;;
28547;SDS011;68292;49.600;8.746;2023-04-25T03:26:57;4.80;;;4.40;;
28547;SDS011;68292;49.600;8.746;2023-04-25T03:29:27;8.53;;;4.97;;
28547;SDS011;68292;49.600;8.746;2023-04-25T03:31:57;7.77;;;4.93;;
28547;SDS011;68292;49.600;8.746;2023-04-25T03:34:27;7.27;;;4.57;;
28547;SDS011;68292;49.600;8.746;2023-04-25T03:36:56;5.17;;;4.77;;
28547;SDS011;68292;49.600;8.746;2023-04-25T03:39:25;5.00;;;4.60;;
28547;SDS011;68292;49.600;8.746;2023-04-25T03:41:56;6.10;;;5.13;;
28547;SDS011;68292;49.600;8.746;2023-04-25T03:44:27;5.30;;;4.80;;
28547;SDS011;68292;49.600;8.746;2023-04-25T03:46:56;6.00;;;4.20;;
28547;SDS011;68292;49.600;8.746;2023-04-25T03:49:25;5.03;;;4.63;;
28547;SDS011;68292;49.600;8.746;2023-04-25T03:52:01;6.73;;;5.20;;
28547;SDS011;68292;49.600;8.746;2023-04-25T03:54:35;4.97;;;4.47;;
28547;SDS011;68292;49.600;8.746;2023-04-25T03:57:16;5.47;;;4.97;;
28547;SDS011;68292;49.600;8.746;2023-04-25T03:59:44;5.23;;;4.73;;
28547;SDS011;68292;49.600;8.746;2023-04-25T04:02:14;6.60;;;5.13;;
28547;SDS011;68292;49.600;8.746;2023-04-25T04:04:44;5.20;;;4.80;;
28547;SDS011;68292;49.600;8.746;2023-04-25T04:07:15;5.17;;;4.77;;
28547;SDS011;68292;49.600;8.746;2023-04-25T04:09:46;6.17;;;5.30;;
28547;SDS011;68292;49.600;8.746;2023-04-25T04:12:23;6.43;;;5.70;;
28547;SDS011;68292;49.600;8.746;2023-04-25T04:14:52;6.10;;;5.50;;
28547;SDS011;68292;49.600;8.746;2023-04-25T04:17:20;9.60;;;6.37;;
28547;SDS011;68292;49.600;8.746;2023-04-25T04:19:50;8.03;;;6.20;;
28547;SDS011;68292;49.600;8.746;2023-04-25T04:22:21;7.50;;;6.73;;
28547;SDS011;68292;49.600;8.746;2023-04-25T04:24:54;7.53;;;6.80;;
28547;SDS011;68292;49.600;8.746;2023-04-25T04:27:43;8.63;;;6.83;;
28547;SDS011;68292;49.600;8.746;2023-04-25T04:30:24;7.97;;;6.70;;
28547;SDS011;68292;49.600;8.746;2023-04-25T04:32:58;9.00;;;7.13;;
28547;SDS011;68292;49.600;8.746;2023-04-25T04:35:28;9.53;;;7.43;;
28547;SDS011;68292;49.600;8.746;2023-04-25T04:37:59;8.03;;;7.23;;
28547;SDS011;68292;49.600;8.746;2023-04-25T04:40:32;8.70;;;7.07;;
28547;SDS011;68292;49.600;8.746;2023-04-25T04:43:24;8.10;;;7.40;;
28547;SDS011;68292;49.600;8.746;2023-04-25T04:45:53;7.50;;;6.80;;
28547;SDS011;68292;49.600;8.746;2023-04-25T04:48:54;7.67;;;6.83;;
28547;SDS011;68292;49.600;8.746;2023-04-25T04:51:43;7.17;;;6.50;;
28547;SDS011;68292;49.600;8.746;2023-04-25T04:54:34;7.83;;;7.03;;
28547;SDS011;68292;49.600;8.746;2023-04-25T04:57:23;7.30;;;6.60;;
28547;SDS011;68292;49.600;8.746;2023-04-25T05:00:11;8.10;;;6.77;;
28547;SDS011;68292;49.600;8.746;2023-04-25T05:03:02;7.40;;;6.70;;
28547;SDS011;68292;49.600;8.746;2023-04-25T05:06:10;9.03;;;5.77;;
28547;SDS011;68292;49.600;8.746;2023-04-25T05:08:49;8.00;;;7.27;;
28547;SDS011;68292;49.600;8.746;2023-04-25T05:11:19;7.23;;;6.47;;
28547;SDS011;68292;49.600;8.746;2023-04-25T05:13:58;10.13;;;7.00;;
28547;SDS011;68292;49.600;8.746;2023-04-25T05:16:45;8.10;;;7.30;;
28547;SDS011;68292;49.600;8.746;2023-04-25T05:19:29;7.77;;;7.07;;
28547;SDS011;68292;49.600;8.746;2023-04-25T05:22:17;8.10;;;7.30;;
28547;SDS011;68292;49.600;8.746;2023-04-25T05:25:07;8.27;;;7.47;;
28547;SDS011;68292;49.600;8.746;2023-04-25T05:27:56;7.77;;;7.07;;
28547;SDS011;68292;49.600;8.746;2023-04-25T05:30:44;7.20;;;6.57;;
28547;SDS011;68292;49.600;8.746;2023-04-25T05:33:18;7.60;;;6.63;;
28547;SDS011;68292;49.600;8.746;2023-04-25T05:35:48;7.80;;;6.80;;
28547;SDS011;68292;49.600;8.746;2023-04-25T05:38:18;7.67;;;6.97;;
28547;SDS011;68292;49.600;8.746;2023-04-25T05:41:05;7.17;;;6.53;;
28547;SDS011;68292;49.600;8.746;2023-04-25T05:43:44;7.80;;;7.03;;
28547;SDS011;68292;49.600;8.746;2023-04-25T05:46:30;6.60;;;6.00;;
28547;SDS011;68292;49.600;8.746;2023-04-25T05:49:15;6.73;;;6.13;;
28547;SDS011;68292;49.600;8.746;2023-04-25T05:52:03;7.50;;;6.80;;
28547;SDS011;68292;49.600;8.746;2023-04-25T05:54:55;7.37;;;6.67;;
28547;SDS011;68292;49.600;8.746;2023-04-25T05:57:24;8.67;;;7.47;;
28547;SDS011;68292;49.600;8.746;2023-04-25T05:59:57;7.60;;;6.90;;
28547;SDS011;68292;49.600;8.746;2023-04-25T06:02:38;7.43;;;6.83;;
28547;SDS011;68292;49.600;8.746;2023-04-25T06:05:09;8.00;;;7.20;;
28547;SDS011;68292;49.600;8.746;2023-04-25T06:07:38;6.57;;;5.97;;
28547;SDS011;68292;49.600;8.746;2023-04-25T06:10:07;7.27;;;6.03;;
28547;SDS011;68292;49.600;8.746;2023-04-25T06:12:37;9.33;;;6.17;;
28547;SDS011;68292;49.600;8.746;2023-04-25T06:15:08;7.00;;;6.40;;
28547;SDS011;68292;49.600;8.746;2023-04-25T06:17:53;7.07;;;6.40;;
28547;SDS011;68292;49.600;8.746;2023-04-25T06:20:23;7.20;;;6.60;;
28547;SDS011;68292;49.600;8.746;2023-04-25T06:22:55;7.00;;;6.30;;
28547;SDS011;68292;49.600;8.746;2023-04-25T06:25:33;8.17;;;6.97;;
28547;SDS011;68292;49.600;8.746;2023-04-25T06:28:02;8.60;;;6.50;;
28547;SDS011;68292;49.600;8.746;2023-04-25T06:30:32;7.47;;;6.63;;
28547;SDS011;68292;49.600;8.746;2023-04-25T06:33:06;7.03;;;6.20;;
28547;SDS011;68292;49.600;8.746;2023-04-25T06:35:37;7.27;;;5.80;;
28547;SDS011;68292;49.600;8.746;2023-04-25T06:38:09;6.67;;;5.30;;
28547;SDS011;68292;49.600;8.746;2023-04-25T06:40:40;10.17;;;5.67;;
28547;SDS011;68292;49.600;8.746;2023-04-25T06:43:09;6.53;;;5.57;;
28547;SDS011;68292;49.600;8.746;2023-04-25T06:45:53;6.80;;;5.40;;
28547;SDS011;68292;49.600;8.746;2023-04-25T06:48:24;6.30;;;5.47;;
28547;SDS011;68292;49.600;8.746;2023-04-25T06:50:54;6.20;;;5.60;;
28547;SDS011;68292;49.600;8.746;2023-04-25T06:53:23;5.93;;;5.37;;
28547;SDS011;68292;49.600;8.746;2023-04-25T06:55:59;5.80;;;5.20;;
28547;SDS011;68292;49.600;8.746;2023-04-25T06:58:43;6.90;;;5.30;;
28547;SDS011;68292;49.600;8.746;2023-04-25T07:01:20;4.97;;;4.47;;
28547;SDS011;68292;49.600;8.746;2023-04-25T07:03:49;7.00;;;4.77;;
28547;SDS011;68292;49.600;8.746;2023-04-25T07:06:18;7.77;;;4.60;;
28547;SDS011;68292;49.600;8.746;2023-04-25T07:08:47;6.00;;;4.23;;
28547;SDS011;68292;49.600;8.746;2023-04-25T07:11:17;5.07;;;4.57;;
28547;SDS011;68292;49.600;8.746;2023-04-25T07:13:46;7.73;;;4.13;;
28547;SDS011;68292;49.600;8.746;2023-04-25T07:16:15;5.73;;;4.63;;
28547;SDS011;68292;49.600;8.746;2023-04-25T07:18:47;4.47;;;3.73;;
28547;SDS011;68292;49.600;8.746;2023-04-25T07:21:16;5.87;;;4.40;;
28547;SDS011;68292;49.600;8.746;2023-04-25T07:23:46;4.70;;;4.30;;
28547;SDS011;68292;49.600;8.746;2023-04-25T07:26:19;8.80;;;4.60;;
28547;SDS011;68292;49.600;8.746;2023-04-25T07:29:08;6.07;;;4.30;;
28547;SDS011;68292;49.600;8.746;2023-04-25T07:31:37;5.30;;;4.03;;
28547;SDS011;68292;49.600;8.746;2023-04-25T07:34:07;4.70;;;4.00;;
28547;SDS011;68292;49.600;8.746;2023-04-25T07:36:37;5.40;;;3.87;;
28547;SDS011;68292;49.600;8.746;2023-04-25T07:39:06;5.43;;;3.70;;
28547;SDS011;68292;49.600;8.746;2023-04-25T07:41:36;4.67;;;3.50;;
28547;SDS011;68292;49.600;8.746;2023-04-25T07:44:06;5.77;;;3.50;;
28547;SDS011;68292;49.600;8.746;2023-04-25T07:46:35;4.53;;;3.50;;
28547;SDS011;68292;49.600;8.746;2023-04-25T07:49:05;5.03;;;3.50;;
28547;SDS011;68292;49.600;8.746;2023-04-25T07:51:35;4.00;;;3.47;;
28547;SDS011;68292;49.600;8.746;2023-04-25T07:54:08;5.80;;;3.30;;
28547;SDS011;68292;49.600;8.746;2023-04-25T07:56:42;7.93;;;4.07;;
28547;SDS011;68292;49.600;8.746;2023-04-25T07:59:25;5.57;;;3.60;;
28547;SDS011;68292;49.600;8.746;2023-04-25T08:01:58;6.40;;;3.47;;
28547;SDS011;68292;49.600;8.746;2023-04-25T08:04:28;4.93;;;3.57;;
28547;SDS011;68292;49.600;8.746;2023-04-25T08:07:03;4.67;;;3.80;;
28547;SDS011;68292;49.600;8.746;2023-04-25T08:09:40;5.63;;;3.43;;
28547;SDS011;68292;49.600;8.746;2023-04-25T08:12:17;5.67;;;4.10;;
28547;SDS011;68292;49.600;8.746;2023-04-25T08:14:49;5.53;;;3.50;;
28547;SDS011;68292;49.600;8.746;2023-04-25T08:17:19;7.70;;;3.90;;
28547;SDS011;68292;49.600;8.746;2023-04-25T08:19:48;9.10;;;3.40;;
28547;SDS011;68292;49.600;8.746;2023-04-25T08:22:25;4.73;;;3.27;;
28547;SDS011;68292;49.600;8.746;2023-04-25T08:25:10;3.30;;;2.90;;
28547;SDS011;68292;49.600;8.746;2023-04-25T08:27:40;5.27;;;3.30;;
28547;SDS011;68292;49.600;8.746;2023-04-25T08:30:09;4.43;;;3.03;;
28547;SDS011;68292;49.600;8.746;2023-04-25T08:32:40;5.53;;;3.20;;
28547;SDS011;68292;49.600;8.746;2023-04-25T08:35:42;6.03;;;3.37;;
28547;SDS011;68292;49.600;8.746;2023-04-25T08:38:14;7.63;;;3.50;;
28547;SDS011;68292;49.600;8.746;2023-04-25T08:40:43;8.57;;;3.73;;
28547;SDS011;68292;49.600;8.746;2023-04-25T08:43:15;5.80;;;3.80;;
28547;SDS011;68292;49.600;8.746;2023-04-25T08:45:47;5.00;;;3.67;;
28547;SDS011;68292;49.600;8.746;2023-04-25T08:48:30;3.30;;;3.00;;
28547;SDS011;68292;49.600;8.746;2023-04-25T08:51:03;5.17;;;3.20;;
28547;SDS011;68292;49.600;8.746;2023-04-25T08:53:42;4.17;;;3.40;;
28547;SDS011;68292;49.600;8.746;2023-04-25T08:56:12;5.90;;;3.77;;
28547;SDS011;68292;49.600;8.746;2023-04-25T08:58:47;6.60;;;3.40;;
28547;SDS011;68292;49.600;8.746;2023-04-25T09:01:18;4.93;;;3.77;;
28547;SDS011;68292;49.600;8.746;2023-04-25T09:03:51;6.67;;;3.53;;
28547;SDS011;68292;49.600;8.746;2023-04-25T09:06:21;5.03;;;3.67;;
28547;SDS011;68292;49.600;8.746;2023-04-25T09:08:52;6.63;;;3.70;;
28547;SDS011;68292;49.600;8.746;2023-04-25T09:11:21;5.67;;;3.77;;
28547;SDS011;68292;49.600;8.746;2023-04-25T09:13:51;5.03;;;3.73;;
28547;SDS011;68292;49.600;8.746;2023-04-25T09:17:03;6.40;;;3.70;;
28547;SDS011;68292;49.600;8.746;2023-04-25T09:19:43;6.30;;;4.20;;
28547;SDS011;68292;49.600;8.746;2023-04-25T09:22:32;5.90;;;3.67;;
28547;SDS011;68292;49.600;8.746;2023-04-25T09:25:07;7.27;;;4.50;;
28547;SDS011;68292;49.600;8.746;2023-04-25T09:27:48;6.30;;;3.90;;
28547;SDS011;68292;49.600;8.746;2023-04-25T09:30:28;5.03;;;4.17;;
28547;SDS011;68292;49.600;8.746;2023-04-25T09:33:17;5.03;;;3.57;;
28547;SDS011;68292;49.600;8.746;2023-04-25T09:35:49;4.13;;;3.67;;
28547;SDS011;68292;49.600;8.746;2023-04-25T09:38:43;5.37;;;4.17;;
28547;SDS011;68292;49.600;8.746;2023-04-25T09:41:24;5.10;;;3.90;;
28547;SDS011;68292;49.600;8.746;2023-04-25T09:43:56;7.50;;;4.27;;
28547;SDS011;68292;49.600;8.746;2023-04-25T09:46:33;5.90;;;4.37;;
28547;SDS011;68292;49.600;8.746;2023-04-25T09:49:06;7.07;;;4.40;;
28547;SDS011;68292;49.600;8.746;2023-04-25T09:51:55;6.97;;;3.87;;
28547;SDS011;68292;49.600;8.746;2023-04-25T09:54:30;4.93;;;3.97;;
28547;SDS011;68292;49.600;8.746;2023-04-25T09:57:11;4.30;;;3.73;;
28547;SDS011;68292;49.600;8.746;2023-04-25T09:59:43;6.00;;;4.10;;
28547;SDS011;68292;49.600;8.746;2023-04-25T10:02:14;6.20;;;4.33;;
28547;SDS011;68292;49.600;8.746;2023-04-25T10:04:48;4.65;;;4.18;;
28547;SDS011;68292;49.600;8.746;2023-04-25T10:07:39;5.28;;;3.85;;
28547;SDS011;68292;49.600;8.746;2023-04-25T10:10:13;7.38;;;4.28;;
28547;SDS011;68292;49.600;8.746;2023-04-25T10:12:44;5.63;;;3.95;;
28547;SDS011;68292;49.600;8.746;2023-04-25T10:15:13;5.43;;;4.68;;
28547;SDS011;68292;49.600;8.746;2023-04-25T10:17:42;5.63;;;4.28;;
28547;SDS011;68292;49.600;8.746;2023-04-25T10:20:12;5.80;;;3.78;;
28547;SDS011;68292;49.600;8.746;2023-04-25T10:22:42;6.72;;;4.10;;
28547;SDS011;68292;49.600;8.746;2023-04-25T10:25:14;5.88;;;4.28;;
28547;SDS011;68292;49.600;8.746;2023-04-25T10:27:44;7.72;;;3.88;;
28547;SDS011;68292;49.600;8.746;2023-04-25T10:30:14;5.28;;;3.80;;
28547;SDS011;68292;49.600;8.746;2023-04-25T10:32:43;5.75;;;3.75;;
28547;SDS011;68292;49.600;8.746;2023-04-25T10:35:14;4.28;;;3.78;;
28547;SDS011;68292;49.600;8.746;2023-04-25T10:37:56;3.85;;;3.55;;
28547;SDS011;68292;49.600;8.746;2023-04-25T10:40:31;7.07;;;3.35;;
28547;SDS011;68292;49.600;8.746;2023-04-25T10:48:52;5.05;;;3.40;;
28547;SDS011;68292;49.600;8.746;2023-04-25T10:51:23;6.63;;;3.90;;
28547;SDS011;68292;49.600;8.746;2023-04-25T10:54:06;4.15;;;3.75;;
28547;SDS011;68292;49.600;8.746;2023-04-25T10:56:37;5.00;;;3.25;;
28547;SDS011;68292;49.600;8.746;2023-04-25T10:59:13;5.07;;;3.42;;
28547;SDS011;68292;49.600;8.746;2023-04-25T11:01:45;5.18;;;3.30;;
28547;SDS011;68292;49.600;8.746;2023-04-25T11:04:19;4.43;;;3.58;;
28547;SDS011;68292;49.600;8.746;2023-04-25T11:07:04;5.22;;;3.58;;
28547;SDS011;68292;49.600;8.746;2023-04-25T11:09:39;4.53;;;3.30;;
28547;SDS011;68292;49.600;8.746;2023-04-25T11:12:09;9.00;;;3.35;;
28547;SDS011;68292;49.600;8.746;2023-04-25T11:14:40;3.85;;;3.25;;
28547;SDS011;68292;49.600;8.746;2023-04-25T11:17:08;3.30;;;2.90;;
28547;SDS011;68292;49.600;8.746;2023-04-25T11:19:47;3.23;;;2.93;;
28547;SDS011;68292;49.600;8.746;2023-04-25T11:22:16;7.68;;;3.15;;
28547;SDS011;68292;49.600;8.746;2023-04-25T11:24:45;3.87;;;3.00;;
28547;SDS011;68292;49.600;8.746;2023-04-25T11:27:14;3.70;;;2.97;;
28547;SDS011;68292;49.600;8.746;2023-04-25T11:29:44;4.88;;;3.42;;
28547;SDS011;68292;49.600;8.746;2023-04-25T11:32:15;4.20;;;3.28;;
28547;SDS011;68292;49.600;8.746;2023-04-25T11:34:47;4.22;;;2.75;;
28547;SDS011;68292;49.600;8.746;2023-04-25T11:37:15;5.00;;;3.10;;
28547;SDS011;68292;49.600;8.746;2023-04-25T11:39:44;6.43;;;2.90;;
28547;SDS011;68292;49.600;8.746;2023-04-25T11:42:14;4.30;;;2.90;;
28547;SDS011;68292;49.600;8.746;2023-04-25T11:44:44;3.43;;;2.87;;
28547;SDS011;68292;49.600;8.746;2023-04-25T11:47:13;7.80;;;3.30;;
28547;SDS011;68292;49.600;8.746;2023-04-25T11:49:41;4.87;;;3.50;;
28547;SDS011;68292;49.600;8.746;2023-04-25T11:52:10;4.50;;;3.13;;
28547;SDS011;68292;49.600;8.746;2023-04-25T11:54:39;4.50;;;3.50;;
28547;SDS011;68292;49.600;8.746;2023-04-25T11:57:08;4.97;;;3.97;;
28547;SDS011;68292;49.600;8.746;2023-04-25T11:59:37;4.80;;;3.63;;
28547;SDS011;68292;49.600;8.746;2023-04-25T12:02:07;4.53;;;3.17;;
28547;SDS011;68292;49.600;8.746;2023-04-25T12:04:36;4.33;;;3.70;;
28547;SDS011;68292;49.600;8.746;2023-04-25T12:07:05;6.47;;;3.53;;
28547;SDS011;68292;49.600;8.746;2023-04-25T12:09:38;4.63;;;3.70;;
28547;SDS011;68292;49.600;8.746;2023-04-25T12:12:09;6.67;;;3.47;;
28547;SDS011;68292;49.600;8.746;2023-04-25T12:14:38;4.43;;;3.53;;
28547;SDS011;68292;49.600;8.746;2023-04-25T12:17:09;4.00;;;3.37;;
28547;SDS011;68292;49.600;8.746;2023-04-25T12:19:38;3.70;;;3.40;;
28547;SDS011;68292;49.600;8.746;2023-04-25T12:22:18;4.07;;;3.60;;
28547;SDS011;68292;49.600;8.746;2023-04-25T12:24:49;4.27;;;3.50;;
28547;SDS011;68292;49.600;8.746;2023-04-25T12:27:19;4.00;;;3.33;;
28547;SDS011;68292;49.600;8.746;2023-04-25T12:29:51;8.20;;;3.60;;
28547;SDS011;68292;49.600;8.746;2023-04-25T12:32:23;5.73;;;4.57;;
28547;SDS011;68292;49.600;8.746;2023-04-25T12:34:53;5.27;;;3.80;;
28547;SDS011;68292;49.600;8.746;2023-04-25T12:37:21;6.07;;;4.03;;
28547;SDS011;68292;49.600;8.746;2023-04-25T12:39:50;5.30;;;3.95;;
28547;SDS011;68292;49.600;8.746;2023-04-25T12:42:19;5.10;;;3.67;;
28547;SDS011;68292;49.600;8.746;2023-04-25T12:44:47;4.97;;;4.10;;
28547;SDS011;68292;49.600;8.746;2023-04-25T12:47:16;4.87;;;4.00;;
28547;SDS011;68292;49.600;8.746;2023-04-25T12:49:46;6.63;;;4.10;;
28547;SDS011;68292;49.600;8.746;2023-04-25T12:52:15;6.50;;;4.40;;
28547;SDS011;68292;49.600;8.746;2023-04-25T12:54:43;5.93;;;4.07;;
28547;SDS011;68292;49.600;8.746;2023-04-25T12:57:12;4.70;;;3.47;;
28547;SDS011;68292;49.600;8.746;2023-04-25T12:59:41;6.43;;;3.80;;
28547;SDS011;68292;49.600;8.746;2023-04-25T13:02:10;4.90;;;4.20;;
28547;SDS011;68292;49.600;8.746;2023-04-25T13:04:39;6.27;;;4.23;;
28547;SDS011;68292;49.600;8.746;2023-04-25T13:07:09;5.67;;;4.20;;
28547;SDS011;68292;49.600;8.746;2023-04-25T13:09:37;5.57;;;4.10;;
28547;SDS011;68292;49.600;8.746;2023-04-25T13:12:06;5.20;;;4.13;;
28547;SDS011;68292;49.600;8.746;2023-04-25T13:14:35;4.67;;;4.00;;
28547;SDS011;68292;49.600;8.746;2023-04-25T13:17:04;5.00;;;4.10;;
28547;SDS011;68292;49.600;8.746;2023-04-25T13:19:33;4.93;;;4.30;;
28547;SDS011;68292;49.600;8.746;2023-04-25T13:22:01;6.10;;;4.40;;
28547;SDS011;68292;49.600;8.746;2023-04-25T13:24:32;4.77;;;4.27;;
28547;SDS011;68292;49.600;8.746;2023-04-25T13:27:01;4.40;;;3.80;;
28547;SDS011;68292;49.600;8.746;2023-04-25T13:29:29;4.13;;;3.83;;
28547;SDS011;68292;49.600;8.746;2023-04-25T13:32:01;6.37;;;4.70;;
28547;SDS011;68292;49.600;8.746;2023-04-25T13:34:30;7.25;;;4.68;;
28547;SDS011;68292;49.600;8.746;2023-04-25T13:36:58;6.43;;;4.60;;
28547;SDS011;68292;49.600;8.746;2023-04-25T13:39:28;5.07;;;4.15;;
28547;SDS011;68292;49.600;8.746;2023-04-25T13:41:58;8.67;;;4.53;;
28547;SDS011;68292;49.600;8.746;2023-04-25T13:44:26;5.73;;;3.80;;
28547;SDS011;68292;49.600;8.746;2023-04-25T13:46:55;6.50;;;4.50;;
28547;SDS011;68292;49.600;8.746;2023-04-25T13:49:24;6.57;;;4.63;;
28547;SDS011;68292;49.600;8.746;2023-04-25T13:51:52;6.17;;;4.57;;
28547;SDS011;68292;49.600;8.746;2023-04-25T13:54:21;5.13;;;4.40;;
28547;SDS011;68292;49.600;8.746;2023-04-25T13:56:50;4.83;;;4.30;;
28547;SDS011;68292;49.600;8.746;2023-04-25T13:59:23;5.60;;;4.03;;
28547;SDS011;68292;49.600;8.746;2023-04-25T14:01:54;6.17;;;5.00;;
28547;SDS011;68292;49.600;8.746;2023-04-25T14:04:23;5.93;;;4.93;;
28547;SDS011;68292;49.600;8.746;2023-04-25T14:06:52;5.93;;;4.53;;
28547;SDS011;68292;49.600;8.746;2023-04-25T14:09:21;5.77;;;4.77;;
28547;SDS011;68292;49.600;8.746;2023-04-25T14:11:52;7.87;;;4.60;;
28547;SDS011;68292;49.600;8.746;2023-04-25T14:14:21;7.27;;;5.17;;
28547;SDS011;68292;49.600;8.746;2023-04-25T14:16:51;5.40;;;4.73;;
28547;SDS011;68292;49.600;8.746;2023-04-25T14:19:21;5.50;;;4.60;;
28547;SDS011;68292;49.600;8.746;2023-04-25T14:21:50;5.63;;;4.47;;
28547;SDS011;68292;49.600;8.746;2023-04-25T14:24:19;5.23;;;3.87;;
28547;SDS011;68292;49.600;8.746;2023-04-25T14:26:48;5.47;;;3.93;;
28547;SDS011;68292;49.600;8.746;2023-04-25T14:29:17;5.27;;;4.73;;
28547;SDS011;68292;49.600;8.746;2023-04-25T14:31:47;7.47;;;4.83;;
28547;SDS011;68292;49.600;8.746;2023-04-25T14:34:16;5.10;;;3.90;;
28547;SDS011;68292;49.600;8.746;2023-04-25T14:36:44;7.17;;;5.27;;
28547;SDS011;68292;49.600;8.746;2023-04-25T14:39:13;7.57;;;5.53;;
28547;SDS011;68292;49.600;8.746;2023-04-25T14:41:43;5.40;;;4.70;;
28547;SDS011;68292;49.600;8.746;2023-04-25T14:44:11;6.23;;;5.07;;
28547;SDS011;68292;49.600;8.746;2023-04-25T14:46:40;9.53;;;7.60;;
28547;SDS011;68292;49.600;8.746;2023-04-25T14:49:10;5.93;;;5.10;;
28547;SDS011;68292;49.600;8.746;2023-04-25T14:51:39;6.97;;;4.40;;
28547;SDS011;68292;49.600;8.746;2023-04-25T14:54:08;6.87;;;3.93;;
28547;SDS011;68292;49.600;8.746;2023-04-25T14:56:37;6.70;;;3.90;;
28547;SDS011;68292;49.600;8.746;2023-04-25T14:59:06;9.37;;;4.10;;
28547;SDS011;68292;49.600;8.746;2023-04-25T15:01:34;5.93;;;3.60;;
28547;SDS011;68292;49.600;8.746;2023-04-25T15:04:04;5.90;;;4.03;;
28547;SDS011;68292;49.600;8.746;2023-04-25T15:06:34;6.33;;;3.40;;
28547;SDS011;68292;49.600;8.746;2023-04-25T15:09:03;11.73;;;10.60;;
28547;SDS011;68292;49.600;8.746;2023-04-25T15:11:32;8.63;;;5.27;;
28547;SDS011;68292;49.600;8.746;2023-04-25T15:14:01;12.57;;;4.90;;
28547;SDS011;68292;49.600;8.746;2023-04-25T15:16:30;22.37;;;18.90;;
28547;SDS011;68292;49.600;8.746;2023-04-25T15:18:58;13.73;;;9.30;;
28547;SDS011;68292;49.600;8.746;2023-04-25T15:21:30;7.00;;;5.53;;
28547;SDS011;68292;49.600;8.746;2023-04-25T15:24:00;9.03;;;4.37;;
28547;SDS011;68292;49.600;8.746;2023-04-25T15:26:29;6.70;;;4.90;;